sensor_id;sensor_type;location;lat;lon;timestamp;P1;durP1;ratioP1;P2;durP2;ratioP2
80748;SDS011;70145;53.746;9.970;2024-02-28T00:01:49;15.95;;;10.07;;
80748;SDS011;70145;53.746;9.970;2024-02-28T00:04:17;18.63;;;10.70;;
80748;SDS011;70145;53.746;9.970;2024-02-28T00:06:43;16.58;;;10.52;;
80748;SDS011;70145;53.746;9.970;2024-02-28T00:09:12;19.90;;;12.82;;
80748;SDS011;70145;53.746;9.970;2024-02-28T00:11:43;21.65;;;13.13;;
80748;SDS011;70145;53.746;9.970;2024-02-28T00:14:10;21.42;;;12.38;;
80748;SDS011;70145;53.746;9.970;2024-02-28T00:16:36;19.38;;;11.25;;
80748;SDS011;70145;53.746;9.970;2024-02-28T00:19:01;20.35;;;12.60;;
80748;SDS011;70145;53.746;9.970;2024-02-28T00:21:27;20.20;;;12.95;;
80748;SDS011;70145;53.746;9.970;2024-02-28T00:23:52;21.30;;;13.23;;
80748;SDS011;70145;53.746;9.970;2024-02-28T00:26:18;19.55;;;11.93;;
80748;SDS011;70145;53.746;9.970;2024-02-28T00:28:43;22.20;;;12.07;;
80748;SDS011;70145;53.746;9.970;2024-02-28T00:31:08;22.63;;;13.20;;
80748;SDS011;70145;53.746;9.970;2024-02-28T00:33:34;23.47;;;13.07;;
80748;SDS011;70145;53.746;9.970;2024-02-28T00:35:59;22.17;;;12.80;;
80748;SDS011;70145;53.746;9.970;2024-02-28T00:38:24;22.27;;;13.60;;
80748;SDS011;70145;53.746;9.970;2024-02-28T00:40:50;21.52;;;11.60;;
80748;SDS011;70145;53.746;9.970;2024-02-28T00:43:15;22.83;;;13.13;;
80748;SDS011;70145;53.746;9.970;2024-02-28T00:45:40;24.00;;;13.20;;
80748;SDS011;70145;53.746;9.970;2024-02-28T00:48:05;24.70;;;13.20;;
80748;SDS011;70145;53.746;9.970;2024-02-28T00:50:31;22.02;;;12.13;;
80748;SDS011;70145;53.746;9.970;2024-02-28T00:52:56;23.73;;;11.87;;
80748;SDS011;70145;53.746;9.970;2024-02-28T00:55:22;19.63;;;10.87;;
80748;SDS011;70145;53.746;9.970;2024-02-28T00:57:47;21.70;;;12.07;;
80748;SDS011;70145;53.746;9.970;2024-02-28T01:00:12;21.13;;;12.07;;
80748;SDS011;70145;53.746;9.970;2024-02-28T01:02:39;23.80;;;13.20;;
80748;SDS011;70145;53.746;9.970;2024-02-28T01:05:06;20.88;;;12.40;;
80748;SDS011;70145;53.746;9.970;2024-02-28T01:07:32;19.25;;;10.75;;
80748;SDS011;70145;53.746;9.970;2024-02-28T01:09:57;20.13;;;10.87;;
80748;SDS011;70145;53.746;9.970;2024-02-28T01:12:22;19.60;;;11.03;;
80748;SDS011;70145;53.746;9.970;2024-02-28T01:14:48;18.53;;;10.27;;
80748;SDS011;70145;53.746;9.970;2024-02-28T01:17:13;17.48;;;9.32;;
80748;SDS011;70145;53.746;9.970;2024-02-28T01:19:38;16.97;;;9.40;;
80748;SDS011;70145;53.746;9.970;2024-02-28T01:22:03;22.07;;;11.53;;
80748;SDS011;70145;53.746;9.970;2024-02-28T01:24:29;18.52;;;10.32;;
80748;SDS011;70145;53.746;9.970;2024-02-28T01:26:54;18.83;;;10.60;;
80748;SDS011;70145;53.746;9.970;2024-02-28T01:29:19;18.25;;;10.02;;
80748;SDS011;70145;53.746;9.970;2024-02-28T01:31:45;22.00;;;11.93;;
80748;SDS011;70145;53.746;9.970;2024-02-28T01:34:10;17.38;;;9.75;;
80748;SDS011;70145;53.746;9.970;2024-02-28T01:36:35;19.77;;;11.13;;
80748;SDS011;70145;53.746;9.970;2024-02-28T01:39:01;19.98;;;11.73;;
80748;SDS011;70145;53.746;9.970;2024-02-28T01:41:26;20.30;;;10.80;;
80748;SDS011;70145;53.746;9.970;2024-02-28T01:43:51;19.90;;;11.03;;
80748;SDS011;70145;53.746;9.970;2024-02-28T01:46:27;21.58;;;11.40;;
80748;SDS011;70145;53.746;9.970;2024-02-28T01:48:54;19.02;;;11.68;;
80748;SDS011;70145;53.746;9.970;2024-02-28T01:51:22;17.42;;;10.80;;
80748;SDS011;70145;53.746;9.970;2024-02-28T01:53:50;18.23;;;10.13;;
80748;SDS011;70145;53.746;9.970;2024-02-28T01:56:17;21.73;;;11.50;;
80748;SDS011;70145;53.746;9.970;2024-02-28T01:58:44;20.55;;;10.85;;
80748;SDS011;70145;53.746;9.970;2024-02-28T02:01:12;20.25;;;11.32;;
80748;SDS011;70145;53.746;9.970;2024-02-28T02:03:39;20.42;;;11.32;;
80748;SDS011;70145;53.746;9.970;2024-02-28T02:06:04;21.98;;;11.10;;
80748;SDS011;70145;53.746;9.970;2024-02-28T02:08:30;23.45;;;12.60;;
80748;SDS011;70145;53.746;9.970;2024-02-28T02:10:56;19.52;;;11.45;;
80748;SDS011;70145;53.746;9.970;2024-02-28T02:13:21;24.98;;;12.00;;
80748;SDS011;70145;53.746;9.970;2024-02-28T02:15:47;22.08;;;11.45;;
80748;SDS011;70145;53.746;9.970;2024-02-28T02:18:12;20.73;;;11.98;;
80748;SDS011;70145;53.746;9.970;2024-02-28T02:20:38;21.30;;;10.87;;
80748;SDS011;70145;53.746;9.970;2024-02-28T02:23:08;20.88;;;10.98;;
80748;SDS011;70145;53.746;9.970;2024-02-28T02:25:34;18.30;;;11.05;;
80748;SDS011;70145;53.746;9.970;2024-02-28T02:27:59;20.23;;;10.25;;
80748;SDS011;70145;53.746;9.970;2024-02-28T02:30:24;18.15;;;9.88;;
80748;SDS011;70145;53.746;9.970;2024-02-28T02:32:50;18.83;;;9.90;;
80748;SDS011;70145;53.746;9.970;2024-02-28T02:35:15;19.70;;;10.80;;
80748;SDS011;70145;53.746;9.970;2024-02-28T02:37:44;16.70;;;9.73;;
80748;SDS011;70145;53.746;9.970;2024-02-28T02:40:13;20.48;;;9.80;;
80748;SDS011;70145;53.746;9.970;2024-02-28T02:42:39;21.48;;;11.30;;
80748;SDS011;70145;53.746;9.970;2024-02-28T02:45:04;19.85;;;10.77;;
80748;SDS011;70145;53.746;9.970;2024-02-28T02:47:30;20.63;;;11.20;;
80748;SDS011;70145;53.746;9.970;2024-02-28T02:49:55;22.38;;;10.93;;
80748;SDS011;70145;53.746;9.970;2024-02-28T02:52:21;19.55;;;10.15;;
80748;SDS011;70145;53.746;9.970;2024-02-28T02:54:46;22.03;;;11.20;;
80748;SDS011;70145;53.746;9.970;2024-02-28T02:57:11;19.20;;;10.33;;
80748;SDS011;70145;53.746;9.970;2024-02-28T02:59:37;18.00;;;9.87;;
80748;SDS011;70145;53.746;9.970;2024-02-28T03:02:02;18.63;;;9.97;;
80748;SDS011;70145;53.746;9.970;2024-02-28T03:04:28;17.30;;;9.75;;
80748;SDS011;70145;53.746;9.970;2024-02-28T03:06:53;19.03;;;9.43;;
80748;SDS011;70145;53.746;9.970;2024-02-28T03:09:19;17.50;;;9.10;;
80748;SDS011;70145;53.746;9.970;2024-02-28T03:11:44;15.83;;;8.80;;
80748;SDS011;70145;53.746;9.970;2024-02-28T03:14:09;17.70;;;9.37;;
80748;SDS011;70145;53.746;9.970;2024-02-28T03:16:34;16.57;;;8.97;;
80748;SDS011;70145;53.746;9.970;2024-02-28T03:19:02;15.60;;;8.32;;
80748;SDS011;70145;53.746;9.970;2024-02-28T03:21:28;15.45;;;8.10;;
80748;SDS011;70145;53.746;9.970;2024-02-28T03:23:53;14.37;;;7.53;;
80748;SDS011;70145;53.746;9.970;2024-02-28T03:26:18;14.63;;;7.70;;
80748;SDS011;70145;53.746;9.970;2024-02-28T03:28:43;13.80;;;7.77;;
80748;SDS011;70145;53.746;9.970;2024-02-28T03:31:09;15.20;;;7.97;;
80748;SDS011;70145;53.746;9.970;2024-02-28T03:33:34;14.97;;;7.87;;
80748;SDS011;70145;53.746;9.970;2024-02-28T03:36:00;14.50;;;8.18;;
80748;SDS011;70145;53.746;9.970;2024-02-28T03:38:25;15.32;;;8.68;;
80748;SDS011;70145;53.746;9.970;2024-02-28T03:40:51;13.13;;;7.77;;
80748;SDS011;70145;53.746;9.970;2024-02-28T03:43:16;15.38;;;7.80;;
80748;SDS011;70145;53.746;9.970;2024-02-28T03:45:41;15.80;;;8.63;;
80748;SDS011;70145;53.746;9.970;2024-02-28T03:48:07;15.48;;;7.82;;
80748;SDS011;70145;53.746;9.970;2024-02-28T03:50:32;14.05;;;7.80;;
80748;SDS011;70145;53.746;9.970;2024-02-28T03:52:57;14.73;;;7.47;;
80748;SDS011;70145;53.746;9.970;2024-02-28T03:55:23;12.80;;;7.45;;
80748;SDS011;70145;53.746;9.970;2024-02-28T03:57:48;15.20;;;8.33;;
80748;SDS011;70145;53.746;9.970;2024-02-28T04:00:16;13.43;;;7.45;;
80748;SDS011;70145;53.746;9.970;2024-02-28T04:02:42;14.95;;;7.53;;
80748;SDS011;70145;53.746;9.970;2024-02-28T04:05:07;15.55;;;8.25;;
80748;SDS011;70145;53.746;9.970;2024-02-28T04:07:32;14.73;;;7.38;;
80748;SDS011;70145;53.746;9.970;2024-02-28T04:09:58;16.02;;;8.80;;
80748;SDS011;70145;53.746;9.970;2024-02-28T04:12:23;16.57;;;9.13;;
80748;SDS011;70145;53.746;9.970;2024-02-28T04:14:49;16.43;;;8.30;;
80748;SDS011;70145;53.746;9.970;2024-02-28T04:17:14;16.67;;;8.73;;
80748;SDS011;70145;53.746;9.970;2024-02-28T04:19:39;14.60;;;7.77;;
80748;SDS011;70145;53.746;9.970;2024-02-28T04:22:04;16.53;;;8.90;;
80748;SDS011;70145;53.746;9.970;2024-02-28T04:24:30;16.57;;;8.77;;
80748;SDS011;70145;53.746;9.970;2024-02-28T04:26:56;13.70;;;7.30;;
80748;SDS011;70145;53.746;9.970;2024-02-28T04:29:23;17.08;;;8.95;;
80748;SDS011;70145;53.746;9.970;2024-02-28T04:31:48;16.05;;;8.07;;
80748;SDS011;70145;53.746;9.970;2024-02-28T04:34:14;17.73;;;8.13;;
80748;SDS011;70145;53.746;9.970;2024-02-28T04:36:39;15.68;;;9.05;;
80748;SDS011;70145;53.746;9.970;2024-02-28T04:39:04;14.80;;;8.27;;
80748;SDS011;70145;53.746;9.970;2024-02-28T04:41:32;15.27;;;7.88;;
80748;SDS011;70145;53.746;9.970;2024-02-28T04:43:58;16.95;;;8.55;;
80748;SDS011;70145;53.746;9.970;2024-02-28T04:46:23;13.10;;;7.83;;
80748;SDS011;70145;53.746;9.970;2024-02-28T04:48:48;16.97;;;8.23;;
80748;SDS011;70145;53.746;9.970;2024-02-28T04:51:15;17.57;;;9.97;;
80748;SDS011;70145;53.746;9.970;2024-02-28T04:53:42;15.60;;;8.15;;
80748;SDS011;70145;53.746;9.970;2024-02-28T04:56:07;16.75;;;8.95;;
80748;SDS011;70145;53.746;9.970;2024-02-28T04:58:33;15.10;;;8.40;;
80748;SDS011;70145;53.746;9.970;2024-02-28T05:00:58;15.90;;;8.73;;
80748;SDS011;70145;53.746;9.970;2024-02-28T05:03:23;15.85;;;8.48;;
80748;SDS011;70145;53.746;9.970;2024-02-28T05:05:50;15.25;;;8.15;;
80748;SDS011;70145;53.746;9.970;2024-02-28T05:08:15;14.95;;;8.55;;
80748;SDS011;70145;53.746;9.970;2024-02-28T05:10:41;17.98;;;9.15;;
80748;SDS011;70145;53.746;9.970;2024-02-28T05:13:06;18.77;;;8.98;;
80748;SDS011;70145;53.746;9.970;2024-02-28T05:15:31;18.73;;;9.15;;
80748;SDS011;70145;53.746;9.970;2024-02-28T05:17:57;16.80;;;9.17;;
80748;SDS011;70145;53.746;9.970;2024-02-28T05:20:22;18.05;;;9.20;;
80748;SDS011;70145;53.746;9.970;2024-02-28T05:22:47;18.70;;;9.40;;
80748;SDS011;70145;53.746;9.970;2024-02-28T05:25:12;18.87;;;10.63;;
80748;SDS011;70145;53.746;9.970;2024-02-28T05:27:38;18.60;;;9.90;;
80748;SDS011;70145;53.746;9.970;2024-02-28T05:30:03;18.27;;;9.43;;
80748;SDS011;70145;53.746;9.970;2024-02-28T05:32:31;17.00;;;9.15;;
80748;SDS011;70145;53.746;9.970;2024-02-28T05:34:57;18.23;;;9.48;;
80748;SDS011;70145;53.746;9.970;2024-02-28T05:37:22;17.93;;;9.53;;
80748;SDS011;70145;53.746;9.970;2024-02-28T05:39:48;19.92;;;10.55;;
80748;SDS011;70145;53.746;9.970;2024-02-28T05:42:13;20.17;;;10.27;;
80748;SDS011;70145;53.746;9.970;2024-02-28T05:44:39;19.70;;;9.52;;
80748;SDS011;70145;53.746;9.970;2024-02-28T05:47:04;20.55;;;9.75;;
80748;SDS011;70145;53.746;9.970;2024-02-28T05:49:29;19.75;;;10.40;;
80748;SDS011;70145;53.746;9.970;2024-02-28T05:51:55;20.30;;;9.90;;
80748;SDS011;70145;53.746;9.970;2024-02-28T05:54:21;18.63;;;9.88;;
80748;SDS011;70145;53.746;9.970;2024-02-28T05:56:46;19.00;;;10.10;;
80748;SDS011;70145;53.746;9.970;2024-02-28T05:59:11;22.10;;;10.57;;
80748;SDS011;70145;53.746;9.970;2024-02-28T06:01:36;23.50;;;10.30;;
80748;SDS011;70145;53.746;9.970;2024-02-28T06:04:03;21.02;;;11.00;;
80748;SDS011;70145;53.746;9.970;2024-02-28T06:06:31;20.60;;;10.30;;
80748;SDS011;70145;53.746;9.970;2024-02-28T06:08:56;23.13;;;9.90;;
80748;SDS011;70145;53.746;9.970;2024-02-28T06:11:21;20.50;;;11.23;;
80748;SDS011;70145;53.746;9.970;2024-02-28T06:13:47;21.47;;;10.60;;
80748;SDS011;70145;53.746;9.970;2024-02-28T06:16:15;21.30;;;9.98;;
80748;SDS011;70145;53.746;9.970;2024-02-28T06:18:41;20.23;;;10.00;;
80748;SDS011;70145;53.746;9.970;2024-02-28T06:21:06;20.63;;;10.43;;
80748;SDS011;70145;53.746;9.970;2024-02-28T06:23:31;20.05;;;10.07;;
80748;SDS011;70145;53.746;9.970;2024-02-28T06:25:57;21.13;;;9.63;;
80748;SDS011;70145;53.746;9.970;2024-02-28T06:28:22;20.80;;;11.07;;
80748;SDS011;70145;53.746;9.970;2024-02-28T06:30:48;20.73;;;10.10;;
80748;SDS011;70145;53.746;9.970;2024-02-28T06:33:13;19.48;;;9.60;;
80748;SDS011;70145;53.746;9.970;2024-02-28T06:35:39;20.60;;;10.68;;
80748;SDS011;70145;53.746;9.970;2024-02-28T06:38:05;22.30;;;11.50;;
80748;SDS011;70145;53.746;9.970;2024-02-28T06:40:30;21.00;;;10.68;;
80748;SDS011;70145;53.746;9.970;2024-02-28T06:42:56;22.05;;;10.43;;
80748;SDS011;70145;53.746;9.970;2024-02-28T06:45:21;21.07;;;9.70;;
80748;SDS011;70145;53.746;9.970;2024-02-28T06:47:46;19.67;;;10.23;;
80748;SDS011;70145;53.746;9.970;2024-02-28T06:50:12;19.38;;;10.13;;
80748;SDS011;70145;53.746;9.970;2024-02-28T06:52:37;20.77;;;10.68;;
80748;SDS011;70145;53.746;9.970;2024-02-28T06:55:03;20.92;;;10.68;;
80748;SDS011;70145;53.746;9.970;2024-02-28T06:57:35;20.45;;;10.70;;
80748;SDS011;70145;53.746;9.970;2024-02-28T07:00:00;19.02;;;10.23;;
80748;SDS011;70145;53.746;9.970;2024-02-28T07:02:26;20.63;;;11.20;;
80748;SDS011;70145;53.746;9.970;2024-02-28T07:04:51;21.08;;;10.68;;
80748;SDS011;70145;53.746;9.970;2024-02-28T07:07:16;18.27;;;9.93;;
80748;SDS011;70145;53.746;9.970;2024-02-28T07:09:42;20.93;;;10.90;;
80748;SDS011;70145;53.746;9.970;2024-02-28T07:12:07;20.03;;;11.33;;
80748;SDS011;70145;53.746;9.970;2024-02-28T07:14:33;20.73;;;10.18;;
80748;SDS011;70145;53.746;9.970;2024-02-28T07:16:58;21.60;;;11.17;;
80748;SDS011;70145;53.746;9.970;2024-02-28T07:19:23;20.23;;;10.70;;
80748;SDS011;70145;53.746;9.970;2024-02-28T07:21:49;21.70;;;11.63;;
80748;SDS011;70145;53.746;9.970;2024-02-28T07:24:14;17.70;;;9.43;;
80748;SDS011;70145;53.746;9.970;2024-02-28T07:26:39;20.45;;;11.20;;
80748;SDS011;70145;53.746;9.970;2024-02-28T07:29:06;19.52;;;9.90;;
80748;SDS011;70145;53.746;9.970;2024-02-28T07:31:31;20.77;;;10.73;;
80748;SDS011;70145;53.746;9.970;2024-02-28T07:33:56;17.63;;;10.13;;
80748;SDS011;70145;53.746;9.970;2024-02-28T07:36:22;21.60;;;11.48;;
80748;SDS011;70145;53.746;9.970;2024-02-28T07:38:47;22.38;;;12.32;;
80748;SDS011;70145;53.746;9.970;2024-02-28T07:41:13;18.50;;;10.48;;
80748;SDS011;70145;53.746;9.970;2024-02-28T07:43:41;20.73;;;10.05;;
80748;SDS011;70145;53.746;9.970;2024-02-28T07:46:08;20.83;;;10.50;;
80748;SDS011;70145;53.746;9.970;2024-02-28T07:48:34;16.65;;;9.57;;
80748;SDS011;70145;53.746;9.970;2024-02-28T07:50:59;16.13;;;8.90;;
80748;SDS011;70145;53.746;9.970;2024-02-28T07:53:26;17.20;;;10.13;;
80748;SDS011;70145;53.746;9.970;2024-02-28T07:55:57;18.77;;;10.43;;
80748;SDS011;70145;53.746;9.970;2024-02-28T07:58:23;18.63;;;9.65;;
80748;SDS011;70145;53.746;9.970;2024-02-28T08:00:49;17.92;;;10.27;;
80748;SDS011;70145;53.746;9.970;2024-02-28T08:03:15;15.35;;;9.13;;
80748;SDS011;70145;53.746;9.970;2024-02-28T08:05:41;16.08;;;9.40;;
80748;SDS011;70145;53.746;9.970;2024-02-28T08:08:08;15.50;;;8.93;;
80748;SDS011;70145;53.746;9.970;2024-02-28T08:10:34;17.75;;;9.52;;
80748;SDS011;70145;53.746;9.970;2024-02-28T08:13:00;20.92;;;11.10;;
80748;SDS011;70145;53.746;9.970;2024-02-28T08:15:26;17.10;;;9.30;;
80748;SDS011;70145;53.746;9.970;2024-02-28T08:17:51;20.02;;;10.00;;
80748;SDS011;70145;53.746;9.970;2024-02-28T08:20:17;17.60;;;10.43;;
80748;SDS011;70145;53.746;9.970;2024-02-28T08:22:42;19.03;;;11.77;;
80748;SDS011;70145;53.746;9.970;2024-02-28T08:25:07;19.13;;;11.57;;
80748;SDS011;70145;53.746;9.970;2024-02-28T08:27:36;18.25;;;11.35;;
80748;SDS011;70145;53.746;9.970;2024-02-28T08:30:01;19.48;;;10.80;;
80748;SDS011;70145;53.746;9.970;2024-02-28T08:32:28;16.27;;;10.25;;
80748;SDS011;70145;53.746;9.970;2024-02-28T08:34:53;20.95;;;12.07;;
80748;SDS011;70145;53.746;9.970;2024-02-28T08:37:19;21.00;;;11.25;;
80748;SDS011;70145;53.746;9.970;2024-02-28T08:39:44;20.85;;;11.07;;
80748;SDS011;70145;53.746;9.970;2024-02-28T08:42:10;20.88;;;11.57;;
80748;SDS011;70145;53.746;9.970;2024-02-28T08:44:35;20.70;;;11.27;;
80748;SDS011;70145;53.746;9.970;2024-02-28T08:47:00;21.73;;;12.80;;
80748;SDS011;70145;53.746;9.970;2024-02-28T08:49:26;21.40;;;12.07;;
80748;SDS011;70145;53.746;9.970;2024-02-28T08:51:51;21.55;;;11.95;;
80748;SDS011;70145;53.746;9.970;2024-02-28T08:54:16;19.23;;;10.75;;
80748;SDS011;70145;53.746;9.970;2024-02-28T08:56:42;19.13;;;11.13;;
80748;SDS011;70145;53.746;9.970;2024-02-28T08:59:07;21.10;;;11.57;;
80748;SDS011;70145;53.746;9.970;2024-02-28T09:01:32;20.48;;;10.77;;
80748;SDS011;70145;53.746;9.970;2024-02-28T09:03:59;22.80;;;12.82;;
80748;SDS011;70145;53.746;9.970;2024-02-28T09:06:25;23.92;;;13.73;;
80748;SDS011;70145;53.746;9.970;2024-02-28T09:08:50;23.08;;;12.15;;
80748;SDS011;70145;53.746;9.970;2024-02-28T09:11:15;19.80;;;10.93;;
80748;SDS011;70145;53.746;9.970;2024-02-28T09:13:41;21.70;;;11.93;;
80748;SDS011;70145;53.746;9.970;2024-02-28T09:16:06;22.00;;;12.27;;
80748;SDS011;70145;53.746;9.970;2024-02-28T09:18:31;23.55;;;12.45;;
80748;SDS011;70145;53.746;9.970;2024-02-28T09:20:57;18.05;;;10.07;;
80748;SDS011;70145;53.746;9.970;2024-02-28T09:23:22;21.97;;;11.87;;
80748;SDS011;70145;53.746;9.970;2024-02-28T09:25:48;20.90;;;11.77;;
80748;SDS011;70145;53.746;9.970;2024-02-28T09:28:13;19.77;;;11.07;;
80748;SDS011;70145;53.746;9.970;2024-02-28T09:30:41;21.20;;;11.77;;
80748;SDS011;70145;53.746;9.970;2024-02-28T09:33:06;20.85;;;11.68;;
80748;SDS011;70145;53.746;9.970;2024-02-28T09:35:31;17.63;;;10.53;;
80748;SDS011;70145;53.746;9.970;2024-02-28T09:37:57;18.67;;;10.37;;
80748;SDS011;70145;53.746;9.970;2024-02-28T09:40:22;21.55;;;11.85;;
80748;SDS011;70145;53.746;9.970;2024-02-28T09:42:50;18.88;;;11.85;;
80748;SDS011;70145;53.746;9.970;2024-02-28T09:45:18;18.50;;;10.73;;
80748;SDS011;70145;53.746;9.970;2024-02-28T09:47:46;18.45;;;10.85;;
80748;SDS011;70145;53.746;9.970;2024-02-28T09:50:11;19.42;;;10.38;;
80748;SDS011;70145;53.746;9.970;2024-02-28T09:52:38;22.55;;;12.02;;
80748;SDS011;70145;53.746;9.970;2024-02-28T09:55:04;18.02;;;10.23;;
80748;SDS011;70145;53.746;9.970;2024-02-28T09:57:29;18.92;;;10.98;;
80748;SDS011;70145;53.746;9.970;2024-02-28T09:59:57;21.42;;;11.93;;
80748;SDS011;70145;53.746;9.970;2024-02-28T10:02:24;21.08;;;11.32;;
80748;SDS011;70145;53.746;9.970;2024-02-28T10:04:52;20.73;;;11.43;;
80748;SDS011;70145;53.746;9.970;2024-02-28T10:07:17;18.77;;;11.45;;
80748;SDS011;70145;53.746;9.970;2024-02-28T10:09:43;16.98;;;9.27;;
80748;SDS011;70145;53.746;9.970;2024-02-28T10:12:08;18.73;;;10.18;;
80748;SDS011;70145;53.746;9.970;2024-02-28T10:14:33;20.83;;;10.45;;
80748;SDS011;70145;53.746;9.970;2024-02-28T10:16:59;18.17;;;9.30;;
80748;SDS011;70145;53.746;9.970;2024-02-28T10:19:24;17.33;;;9.93;;
80748;SDS011;70145;53.746;9.970;2024-02-28T10:21:50;20.10;;;11.47;;
80748;SDS011;70145;53.746;9.970;2024-02-28T10:24:16;17.13;;;10.93;;
80748;SDS011;70145;53.746;9.970;2024-02-28T10:26:41;17.83;;;9.97;;
80748;SDS011;70145;53.746;9.970;2024-02-28T10:29:08;17.60;;;9.82;;
80748;SDS011;70145;53.746;9.970;2024-02-28T10:31:33;17.13;;;10.13;;
80748;SDS011;70145;53.746;9.970;2024-02-28T10:33:59;16.63;;;9.68;;
80748;SDS011;70145;53.746;9.970;2024-02-28T10:36:26;18.13;;;10.13;;
80748;SDS011;70145;53.746;9.970;2024-02-28T10:38:56;14.90;;;8.50;;
80748;SDS011;70145;53.746;9.970;2024-02-28T10:41:22;16.48;;;9.57;;
80748;SDS011;70145;53.746;9.970;2024-02-28T10:43:50;18.42;;;10.30;;
80748;SDS011;70145;53.746;9.970;2024-02-28T10:46:16;18.00;;;8.73;;
80748;SDS011;70145;53.746;9.970;2024-02-28T10:48:44;15.23;;;8.88;;
80748;SDS011;70145;53.746;9.970;2024-02-28T10:51:09;15.90;;;8.60;;
80748;SDS011;70145;53.746;9.970;2024-02-28T10:53:41;16.77;;;9.70;;
80748;SDS011;70145;53.746;9.970;2024-02-28T10:56:07;16.13;;;9.18;;
80748;SDS011;70145;53.746;9.970;2024-02-28T10:58:35;15.88;;;9.20;;
80748;SDS011;70145;53.746;9.970;2024-02-28T11:01:02;19.30;;;10.02;;
80748;SDS011;70145;53.746;9.970;2024-02-28T11:03:28;16.73;;;8.50;;
80748;SDS011;70145;53.746;9.970;2024-02-28T11:05:55;19.77;;;9.65;;
80748;SDS011;70145;53.746;9.970;2024-02-28T11:08:20;16.37;;;9.60;;
80748;SDS011;70145;53.746;9.970;2024-02-28T11:10:47;18.20;;;9.45;;
80748;SDS011;70145;53.746;9.970;2024-02-28T11:13:26;16.83;;;9.27;;
80748;SDS011;70145;53.746;9.970;2024-02-28T11:15:52;14.88;;;9.32;;
80748;SDS011;70145;53.746;9.970;2024-02-28T11:18:20;14.68;;;8.30;;
80748;SDS011;70145;53.746;9.970;2024-02-28T11:20:45;16.38;;;8.68;;
80748;SDS011;70145;53.746;9.970;2024-02-28T11:23:16;16.40;;;8.48;;
80748;SDS011;70145;53.746;9.970;2024-02-28T11:25:42;19.42;;;9.95;;
80748;SDS011;70145;53.746;9.970;2024-02-28T11:28:08;18.70;;;9.57;;
80748;SDS011;70145;53.746;9.970;2024-02-28T11:30:34;17.05;;;9.48;;
80748;SDS011;70145;53.746;9.970;2024-02-28T11:32:59;16.23;;;8.50;;
80748;SDS011;70145;53.746;9.970;2024-02-28T11:35:26;16.45;;;9.05;;
80748;SDS011;70145;53.746;9.970;2024-02-28T11:37:53;17.98;;;8.40;;
80748;SDS011;70145;53.746;9.970;2024-02-28T11:40:22;16.08;;;8.73;;
80748;SDS011;70145;53.746;9.970;2024-02-28T11:42:48;14.27;;;8.30;;
80748;SDS011;70145;53.746;9.970;2024-02-28T11:45:14;18.17;;;10.48;;
80748;SDS011;70145;53.746;9.970;2024-02-28T11:47:39;17.42;;;9.68;;
80748;SDS011;70145;53.746;9.970;2024-02-28T11:50:04;16.33;;;9.30;;
80748;SDS011;70145;53.746;9.970;2024-02-28T11:52:30;15.02;;;8.50;;
80748;SDS011;70145;53.746;9.970;2024-02-28T11:54:56;16.98;;;9.50;;
80748;SDS011;70145;53.746;9.970;2024-02-28T11:57:21;18.55;;;9.95;;
80748;SDS011;70145;53.746;9.970;2024-02-28T11:59:50;18.83;;;9.00;;
80748;SDS011;70145;53.746;9.970;2024-02-28T12:02:16;15.85;;;8.40;;
80748;SDS011;70145;53.746;9.970;2024-02-28T12:04:42;19.48;;;9.45;;
80748;SDS011;70145;53.746;9.970;2024-02-28T12:07:08;17.08;;;8.23;;
80748;SDS011;70145;53.746;9.970;2024-02-28T12:09:34;18.33;;;9.38;;
80748;SDS011;70145;53.746;9.970;2024-02-28T12:12:00;12.90;;;7.88;;
80748;SDS011;70145;53.746;9.970;2024-02-28T12:14:26;15.90;;;7.97;;
80748;SDS011;70145;53.746;9.970;2024-02-28T12:16:52;15.45;;;8.98;;
80748;SDS011;70145;53.746;9.970;2024-02-28T12:19:17;16.58;;;9.02;;
80748;SDS011;70145;53.746;9.970;2024-02-28T12:21:45;12.48;;;7.85;;
80748;SDS011;70145;53.746;9.970;2024-02-28T12:24:10;15.57;;;7.10;;
80748;SDS011;70145;53.746;9.970;2024-02-28T12:26:36;13.93;;;8.20;;
80748;SDS011;70145;53.746;9.970;2024-02-28T12:29:02;13.82;;;7.53;;
80748;SDS011;70145;53.746;9.970;2024-02-28T12:31:28;12.63;;;7.17;;
80748;SDS011;70145;53.746;9.970;2024-02-28T12:33:53;17.88;;;9.32;;
80748;SDS011;70145;53.746;9.970;2024-02-28T12:36:19;14.85;;;8.00;;
80748;SDS011;70145;53.746;9.970;2024-02-28T12:38:45;16.40;;;8.52;;
80748;SDS011;70145;53.746;9.970;2024-02-28T12:41:11;12.02;;;6.78;;
80748;SDS011;70145;53.746;9.970;2024-02-28T12:43:36;14.73;;;6.97;;
80748;SDS011;70145;53.746;9.970;2024-02-28T12:46:01;14.32;;;7.18;;
80748;SDS011;70145;53.746;9.970;2024-02-28T12:48:27;15.57;;;7.97;;
80748;SDS011;70145;53.746;9.970;2024-02-28T12:50:53;14.68;;;6.78;;
80748;SDS011;70145;53.746;9.970;2024-02-28T12:53:18;14.80;;;8.88;;
80748;SDS011;70145;53.746;9.970;2024-02-28T12:55:43;16.00;;;7.60;;
80748;SDS011;70145;53.746;9.970;2024-02-28T12:58:09;16.95;;;7.18;;
80748;SDS011;70145;53.746;9.970;2024-02-28T13:00:35;14.73;;;7.82;;
80748;SDS011;70145;53.746;9.970;2024-02-28T13:03:01;14.90;;;7.85;;
80748;SDS011;70145;53.746;9.970;2024-02-28T13:05:28;14.15;;;6.72;;
80748;SDS011;70145;53.746;9.970;2024-02-28T13:07:53;14.45;;;8.32;;
80748;SDS011;70145;53.746;9.970;2024-02-28T13:10:19;14.50;;;7.10;;
80748;SDS011;70145;53.746;9.970;2024-02-28T13:12:44;16.70;;;8.53;;
80748;SDS011;70145;53.746;9.970;2024-02-28T13:15:09;15.97;;;7.53;;
80748;SDS011;70145;53.746;9.970;2024-02-28T13:17:34;14.13;;;6.63;;
80748;SDS011;70145;53.746;9.970;2024-02-28T13:20:00;14.95;;;8.25;;
80748;SDS011;70145;53.746;9.970;2024-02-28T13:22:25;15.10;;;8.32;;
80748;SDS011;70145;53.746;9.970;2024-02-28T13:24:51;15.77;;;8.40;;
80748;SDS011;70145;53.746;9.970;2024-02-28T13:27:16;15.10;;;8.30;;
80748;SDS011;70145;53.746;9.970;2024-02-28T13:29:41;17.67;;;8.70;;
80748;SDS011;70145;53.746;9.970;2024-02-28T13:32:07;19.37;;;9.10;;
80748;SDS011;70145;53.746;9.970;2024-02-28T13:34:32;13.17;;;7.37;;
80748;SDS011;70145;53.746;9.970;2024-02-28T13:36:57;16.60;;;8.37;;
80748;SDS011;70145;53.746;9.970;2024-02-28T13:39:23;16.77;;;8.18;;
80748;SDS011;70145;53.746;9.970;2024-02-28T13:41:49;15.88;;;8.57;;
80748;SDS011;70145;53.746;9.970;2024-02-28T13:44:16;17.40;;;7.82;;
80748;SDS011;70145;53.746;9.970;2024-02-28T13:46:42;14.48;;;7.15;;
80748;SDS011;70145;53.746;9.970;2024-02-28T13:49:07;16.00;;;7.95;;
80748;SDS011;70145;53.746;9.970;2024-02-28T13:51:33;16.98;;;8.85;;
80748;SDS011;70145;53.746;9.970;2024-02-28T13:53:58;15.85;;;8.60;;
80748;SDS011;70145;53.746;9.970;2024-02-28T13:56:24;18.07;;;8.80;;
80748;SDS011;70145;53.746;9.970;2024-02-28T13:58:49;16.13;;;8.02;;
80748;SDS011;70145;53.746;9.970;2024-02-28T14:01:15;14.70;;;7.63;;
80748;SDS011;70145;53.746;9.970;2024-02-28T14:03:40;17.13;;;7.73;;
80748;SDS011;70145;53.746;9.970;2024-02-28T14:06:05;15.93;;;7.93;;
80748;SDS011;70145;53.746;9.970;2024-02-28T14:08:31;14.80;;;8.60;;
80748;SDS011;70145;53.746;9.970;2024-02-28T14:10:56;15.93;;;8.05;;
80748;SDS011;70145;53.746;9.970;2024-02-28T14:13:23;17.08;;;7.55;;
80748;SDS011;70145;53.746;9.970;2024-02-28T14:15:49;17.27;;;8.25;;
80748;SDS011;70145;53.746;9.970;2024-02-28T14:18:16;16.13;;;7.97;;
80748;SDS011;70145;53.746;9.970;2024-02-28T14:20:42;14.63;;;7.93;;